Time;durP1;ratioP1;P1;durP2;ratioP2;P2;SDS_P1;SDS_P2;PMS_P1;PMS_P2;Temp;Humidity;BMP_temperature;BMP_pressure;BME280_temperature;BME280_humidity;BME280_pressure;Samples;Min_cycle;Max_cycle;Signal;HPM_P1;HPM_P2
2022/01/01 00:00:29;;;;;;;141.45;112.30;;;10.70;99.90;;;;;;5114165;28;20232;-69
2022/01/01 00:02:56;;;;;;;167.20;124.40;;;10.70;99.90;;;;;;5114577;28;20197;-69
2022/01/01 00:05:24;;;;;;;191.98;142.35;;;10.70;99.90;;;;;;5114195;28;20292;-69
2022/01/01 00:07:51;;;;;;;155.80;116.47;;;10.70;99.90;;;;;;5114266;28;20238;-69
2022/01/01 00:10:19;;;;;;;114.80;86.00;;;10.70;99.90;;;;;;5114218;28;20205;-69
2022/01/01 00:12:47;;;;;;;107.38;82.00;;;10.60;99.90;;;;;;5114528;28;20208;-69
2022/01/01 00:15:15;;;;;;;103.85;80.30;;;10.60;99.90;;;;;;5114364;28;20197;-69
2022/01/01 00:17:43;;;;;;;82.40;58.47;;;10.60;99.90;;;;;;5114028;28;20587;-69
2022/01/01 00:20:12;;;;;;;81.03;60.53;;;10.60;99.90;;;;;;5113927;28;20213;-69
2022/01/01 00:22:39;;;;;;;90.47;62.88;;;10.60;99.90;;;;;;5113987;28;20197;-69
2022/01/01 00:25:07;;;;;;;76.22;56.17;;;10.60;99.90;;;;;;5113876;28;20201;-69
2022/01/01 00:27:34;;;;;;;67.55;53.42;;;10.70;99.90;;;;;;5113916;28;20222;-69
2022/01/01 00:30:01;;;;;;;70.35;53.88;;;10.80;99.90;;;;;;5113705;28;20742;-69
2022/01/01 00:32:28;;;;;;;63.05;50.95;;;10.80;99.90;;;;;;5114274;28;20225;-69
2022/01/01 00:34:56;;;;;;;61.40;46.70;;;10.90;99.90;;;;;;5114020;28;20201;-69
2022/01/01 00:37:23;;;;;;;48.75;38.80;;;10.90;99.90;;;;;;5115123;28;20218;-69
2022/01/01 00:39:50;;;;;;;56.60;43.65;;;10.90;99.90;;;;;;5113785;28;20743;-69
2022/01/01 00:42:17;;;;;;;54.25;39.38;;;11.00;99.90;;;;;;5114135;28;20194;-70
2022/01/01 00:44:43;;;;;;;33.60;28.38;;;11.00;99.90;;;;;;5114215;28;20201;-69
2022/01/01 00:47:10;;;;;;;27.45;22.88;;;11.00;99.90;;;;;;5114402;28;20656;-70
2022/01/01 00:49:37;;;;;;;31.70;24.63;;;11.00;99.90;;;;;;5113974;28;20219;-69
2022/01/01 00:52:06;;;;;;;31.58;24.25;;;11.10;99.90;;;;;;5113832;28;20228;-69
2022/01/01 00:54:32;;;;;;;27.30;22.35;;;11.20;99.90;;;;;;5113536;28;20197;-69
2022/01/01 00:56:59;;;;;;;26.90;19.80;;;11.20;99.90;;;;;;5113921;28;20308;-69
2022/01/01 00:59:28;;;;;;;25.63;20.85;;;11.20;99.90;;;;;;5115177;28;20608;-69
2022/01/01 01:01:55;;;;;;;27.02;22.02;;;11.20;99.90;;;;;;5117703;28;20727;-69
2022/01/01 01:04:21;;;;;;;27.00;20.15;;;11.20;99.90;;;;;;5117667;28;20568;-69
2022/01/01 01:06:48;;;;;;;25.33;19.02;;;11.20;99.90;;;;;;5117362;28;20217;-70
2022/01/01 01:09:16;;;;;;;22.98;17.30;;;11.20;99.90;;;;;;5117356;28;20663;-70
2022/01/01 01:11:46;;;;;;;21.35;16.60;;;11.20;99.90;;;;;;5117413;28;20237;-69
2022/01/01 01:14:20;;;;;;;19.27;16.70;;;11.20;99.90;;;;;;5117674;28;20208;-70
2022/01/01 01:16:47;;;;;;;22.00;17.10;;;11.20;99.90;;;;;;5117874;28;20222;-69
2022/01/01 01:19:15;;;;;;;18.60;15.90;;;11.20;99.90;;;;;;5117490;28;20387;-69
2022/01/01 01:21:41;;;;;;;21.17;15.88;;;11.30;99.90;;;;;;5117408;28;20194;-69
2022/01/01 01:24:08;;;;;;;18.92;14.45;;;11.30;99.90;;;;;;5117177;28;20296;-69
2022/01/01 01:26:36;;;;;;;20.20;15.98;;;11.30;99.90;;;;;;5117473;28;20229;-70
2022/01/01 01:29:05;;;;;;;20.10;15.27;;;11.40;99.90;;;;;;5117597;28;20198;-70
2022/01/01 01:31:31;;;;;;;34.38;26.38;;;11.30;99.90;;;;;;5117019;28;20221;-69
2022/01/01 01:33:58;;;;;;;64.82;49.17;;;11.20;99.90;;;;;;5117251;27;20570;-69
2022/01/01 01:36:25;;;;;;;71.35;54.47;;;11.00;99.90;;;;;;5117067;28;20678;-69
2022/01/01 01:38:52;;;;;;;73.18;55.70;;;10.90;99.90;;;;;;5117342;28;20205;-69
2022/01/01 01:41:19;;;;;;;73.60;55.85;;;10.70;99.90;;;;;;5117325;28;20232;-69
2022/01/01 01:43:51;;;;;;;82.47;59.55;;;10.50;99.90;;;;;;5117258;28;20615;-69
2022/01/01 01:46:18;;;;;;;77.85;57.35;;;10.50;99.90;;;;;;5117095;28;20626;-69
2022/01/01 01:48:46;;;;;;;76.85;56.33;;;10.50;99.90;;;;;;5116760;28;20209;-69
2022/01/01 01:51:15;;;;;;;70.10;55.33;;;10.70;99.90;;;;;;5116761;28;20224;-69
2022/01/01 01:53:42;;;;;;;76.03;56.80;;;10.60;99.90;;;;;;5116862;28;20201;-69
2022/01/01 01:56:09;;;;;;;74.90;54.90;;;10.60;99.90;;;;;;5116208;28;20221;-69
2022/01/01 01:58:36;;;;;;;69.53;53.70;;;10.60;99.90;;;;;;5116397;28;20660;-69
2022/01/01 02:01:24;;;;;;;66.32;51.35;;;10.80;99.90;;;;;;5116786;28;20202;-69
2022/01/01 02:03:54;;;;;;;70.63;51.15;;;10.70;99.90;;;;;;5116510;28;20206;-69
2022/01/01 02:06:22;;;;;;;70.78;51.05;;;10.80;99.90;;;;;;5116702;28;20308;-69
2022/01/01 02:08:50;;;;;;;70.50;54.90;;;10.80;99.90;;;;;;5116643;28;20566;-69
2022/01/01 02:11:18;;;;;;;67.53;51.13;;;10.80;99.90;;;;;;5116154;28;20218;-69
2022/01/01 02:14:04;;;;;;;65.75;47.92;;;10.90;99.90;;;;;;5116419;28;20683;-69
2022/01/01 02:17:07;;;;;;;59.47;46.92;;;10.90;99.90;;;;;;5116260;28;20261;-69
2022/01/01 02:19:50;;;;;;;55.50;42.65;;;10.90;99.90;;;;;;5116506;28;20205;-69
2022/01/01 02:22:21;;;;;;;54.90;43.08;;;10.90;99.90;;;;;;5116425;28;20292;-69
2022/01/01 02:24:48;;;;;;;57.70;44.67;;;10.90;99.90;;;;;;5116549;28;20186;-69
2022/01/01 02:27:15;;;;;;;60.47;46.10;;;10.80;99.90;;;;;;5116017;28;20712;-69
2022/01/01 02:29:42;;;;;;;58.10;44.90;;;10.80;99.90;;;;;;5116222;28;20208;-69
2022/01/01 02:32:11;;;;;;;56.35;45.78;;;10.80;99.90;;;;;;5116333;28;20225;-69
2022/01/01 02:34:38;;;;;;;56.78;45.30;;;10.90;99.90;;;;;;5116026;28;20563;-69
2022/01/01 02:37:05;;;;;;;54.13;43.80;;;10.90;99.90;;;;;;5116157;28;20228;-69
2022/01/01 02:39:34;;;;;;;53.63;40.15;;;11.00;99.90;;;;;;5115959;28;20201;-69
2022/01/01 02:42:01;;;;;;;63.45;46.80;;;10.90;99.90;;;;;;5116005;28;20202;-69
2022/01/01 02:44:29;;;;;;;53.10;40.63;;;10.70;99.90;;;;;;5115607;28;20208;-70
2022/01/01 02:46:57;;;;;;;54.03;41.38;;;10.60;99.90;;;;;;5115818;28;20217;-70
2022/01/01 02:49:24;;;;;;;50.03;36.70;;;10.60;99.90;;;;;;5115858;28;20208;-70
2022/01/01 02:51:51;;;;;;;38.53;29.92;;;10.60;99.90;;;;;;5115480;28;20718;-70
2022/01/01 02:54:17;;;;;;;35.22;26.92;;;10.70;99.90;;;;;;5116090;28;20208;-70
2022/01/01 02:56:46;;;;;;;32.80;25.75;;;10.80;99.90;;;;;;5115698;27;20587;-70
2022/01/01 02:59:13;;;;;;;26.60;20.80;;;10.90;99.90;;;;;;5115611;28;20244;-70
2022/01/01 03:01:39;;;;;;;22.83;19.60;;;10.90;99.90;;;;;;5115719;28;20186;-70
2022/01/01 03:04:12;;;;;;;30.70;22.20;;;11.00;99.90;;;;;;5115538;28;20201;-70
2022/01/01 03:06:39;;;;;;;22.48;17.27;;;11.00;99.90;;;;;;5115082;28;20308;-70
2022/01/01 03:09:07;;;;;;;18.00;14.10;;;11.10;99.90;;;;;;5115487;27;20280;-70
2022/01/01 03:11:35;;;;;;;23.50;17.52;;;11.00;99.90;;;;;;5115065;28;20270;-70
2022/01/01 03:14:04;;;;;;;28.77;20.80;;;10.80;99.90;;;;;;5115313;28;20258;-70
2022/01/01 03:16:31;;;;;;;35.78;23.38;;;10.80;99.90;;;;;;5114979;28;20239;-70
2022/01/01 03:18:58;;;;;;;29.60;23.13;;;10.70;99.90;;;;;;5115526;28;20654;-70
2022/01/01 03:21:25;;;;;;;34.85;26.75;;;10.80;99.90;;;;;;5115026;28;20201;-70
2022/01/01 03:23:51;;;;;;;44.20;32.35;;;10.90;99.90;;;;;;5115142;28;20624;-69
2022/01/01 03:26:18;;;;;;;47.47;33.53;;;10.80;99.90;;;;;;5115194;28;20222;-70
2022/01/01 03:28:45;;;;;;;35.13;30.38;;;10.80;99.90;;;;;;5115448;28;20207;-70
2022/01/01 03:31:13;;;;;;;37.30;28.50;;;10.90;99.90;;;;;;5115058;28;20667;-70
2022/01/01 03:33:40;;;;;;;31.73;25.05;;;11.00;99.90;;;;;;5115351;28;20601;-70
2022/01/01 03:36:07;;;;;;;29.17;22.52;;;11.00;99.90;;;;;;5115259;28;20382;-69
2022/01/01 03:38:34;;;;;;;29.50;23.15;;;11.00;99.90;;;;;;5115018;28;20231;-70
2022/01/01 03:41:01;;;;;;;26.60;21.33;;;11.10;99.90;;;;;;5114933;28;20213;-70
2022/01/01 03:43:28;;;;;;;19.25;16.33;;;11.20;99.90;;;;;;5114986;28;20201;-70
2022/01/01 03:45:55;;;;;;;19.98;16.65;;;11.20;99.90;;;;;;5114845;28;20227;-70
2022/01/01 03:48:23;;;;;;;18.33;14.90;;;11.20;99.90;;;;;;5114909;28;20292;-70
2022/01/01 03:50:50;;;;;;;18.90;15.20;;;11.30;99.90;;;;;;5115106;28;20205;-70
2022/01/01 03:53:17;;;;;;;17.90;14.02;;;11.20;99.90;;;;;;5115003;28;20314;-70
2022/01/01 03:55:44;;;;;;;17.77;13.98;;;11.30;99.90;;;;;;5114703;28;20209;-70
2022/01/01 03:58:11;;;;;;;15.57;11.98;;;11.30;99.90;;;;;;5114753;28;20205;-70
2022/01/01 04:00:39;;;;;;;19.00;13.18;;;11.20;99.90;;;;;;5114392;28;20220;-70
2022/01/01 04:03:11;;;;;;;21.40;16.88;;;11.10;99.90;;;;;;5114496;28;20296;-70
2022/01/01 04:05:41;;;;;;;24.65;17.45;;;10.90;99.90;;;;;;5114153;28;20201;-70
2022/01/01 04:08:08;;;;;;;37.00;28.88;;;10.80;99.90;;;;;;5114510;28;20202;-70
2022/01/01 04:10:35;;;;;;;46.83;36.10;;;10.70;99.90;;;;;;5114353;28;20205;-70
2022/01/01 04:13:04;;;;;;;45.35;35.28;;;10.60;99.90;;;;;;5114238;28;20758;-70
2022/01/01 04:15:32;;;;;;;46.30;34.30;;;10.60;99.90;;;;;;5114134;28;20212;-70
2022/01/01 04:18:02;;;;;;;43.65;34.58;;;10.60;99.90;;;;;;5114659;28;20563;-70
2022/01/01 04:20:29;;;;;;;44.70;33.55;;;10.70;99.90;;;;;;5114759;28;20201;-70
2022/01/01 04:22:58;;;;;;;40.35;31.55;;;10.80;99.90;;;;;;5114319;28;20193;-70
2022/01/01 04:25:26;;;;;;;38.03;29.48;;;10.90;99.90;;;;;;5114974;28;20650;-70
2022/01/01 04:27:54;;;;;;;38.08;29.85;;;10.90;99.90;;;;;;5114651;28;20211;-70
2022/01/01 04:30:22;;;;;;;27.35;21.48;;;11.00;99.90;;;;;;5114689;28;20240;-70
2022/01/01 04:32:49;;;;;;;20.83;15.82;;;11.00;99.90;;;;;;5115264;28;20274;-70
2022/01/01 04:35:16;;;;;;;46.42;33.65;;;11.00;99.90;;;;;;5118579;28;20197;-70
2022/01/01 04:37:43;;;;;;;30.88;23.23;;;10.80;99.90;;;;;;5118237;28;20228;-70
2022/01/01 04:40:12;;;;;;;36.42;27.67;;;10.70;99.90;;;;;;5118099;28;20205;-70
2022/01/01 04:42:39;;;;;;;32.55;25.65;;;10.60;99.90;;;;;;5118299;28;20279;-70
2022/01/01 04:45:07;;;;;;;33.97;25.23;;;10.70;99.90;;;;;;5118052;28;20197;-70
2022/01/01 04:47:34;;;;;;;27.13;20.95;;;10.80;99.90;;;;;;5118125;28;20225;-69
2022/01/01 04:50:02;;;;;;;28.15;19.48;;;10.80;99.90;;;;;;5118041;28;20201;-70
2022/01/01 04:52:29;;;;;;;19.67;15.82;;;10.90;99.90;;;;;;5118256;28;20217;-70
2022/01/01 04:54:56;;;;;;;20.27;14.82;;;10.90;99.90;;;;;;5118022;28;20227;-69
2022/01/01 04:57:30;;;;;;;20.48;16.05;;;10.80;99.90;;;;;;5118085;28;20225;-70
2022/01/01 04:59:57;;;;;;;32.22;25.27;;;10.50;99.90;;;;;;5117859;28;20209;-70
2022/01/01 05:02:24;;;;;;;29.95;22.00;;;10.40;99.90;;;;;;5118109;28;20204;-70
2022/01/01 05:04:51;;;;;;;30.10;22.42;;;10.50;99.90;;;;;;5117657;28;20209;-70
2022/01/01 05:07:18;;;;;;;27.92;21.23;;;10.40;99.90;;;;;;5118276;28;20240;-70
2022/01/01 05:09:45;;;;;;;32.05;25.88;;;10.40;99.90;;;;;;5117920;28;20293;-70
2022/01/01 05:12:12;;;;;;;31.20;24.00;;;10.40;99.90;;;;;;5117794;28;20260;-70
2022/01/01 05:14:40;;;;;;;36.75;25.77;;;10.50;99.90;;;;;;5118003;28;20208;-70
2022/01/01 05:17:07;;;;;;;34.60;26.75;;;10.40;99.90;;;;;;5117842;27;20560;-70
2022/01/01 05:19:33;;;;;;;35.65;27.40;;;10.40;99.90;;;;;;5117807;28;20197;-70
2022/01/01 05:22:00;;;;;;;45.22;32.03;;;10.40;99.90;;;;;;5117508;28;20207;-70
2022/01/01 05:24:27;;;;;;;45.35;32.47;;;10.30;99.90;;;;;;5117124;28;20202;-70
2022/01/01 05:26:54;;;;;;;44.38;33.30;;;10.20;99.90;;;;;;5117277;28;20276;-70
2022/01/01 05:29:20;;;;;;;49.13;34.83;;;10.00;99.90;;;;;;5117484;28;20206;-70
2022/01/01 05:31:49;;;;;;;41.88;32.60;;;9.80;99.90;;;;;;5117167;28;20197;-70
2022/01/01 05:34:18;;;;;;;42.10;28.60;;;9.80;99.90;;;;;;5117298;27;20209;-70
2022/01/01 05:36:45;;;;;;;38.92;30.00;;;9.70;99.90;;;;;;5117067;28;20717;-69
2022/01/01 05:39:12;;;;;;;42.15;29.92;;;9.70;99.90;;;;;;5117361;28;20204;-70
2022/01/01 05:41:39;;;;;;;39.25;29.65;;;9.70;99.90;;;;;;5117398;28;20258;-70
2022/01/01 05:44:09;;;;;;;42.45;31.20;;;9.70;99.90;;;;;;5116747;28;20193;-70
2022/01/01 05:46:35;;;;;;;33.85;25.63;;;9.70;99.90;;;;;;5116451;28;20222;-70
2022/01/01 05:49:03;;;;;;;36.15;25.75;;;9.80;99.90;;;;;;5117108;27;20216;-70
2022/01/01 05:51:30;;;;;;;29.35;23.80;;;9.80;99.90;;;;;;5116712;28;20659;-70
2022/01/01 05:53:57;;;;;;;32.95;23.33;;;9.90;99.90;;;;;;5116841;28;20232;-70
2022/01/01 05:56:24;;;;;;;30.40;22.15;;;9.90;99.90;;;;;;5116671;28;20227;-69
2022/01/01 05:58:51;;;;;;;31.00;22.27;;;9.90;99.90;;;;;;5116750;28;20731;-70
2022/01/01 06:01:17;;;;;;;29.52;22.35;;;9.90;99.90;;;;;;5117047;28;20290;-70
2022/01/01 06:03:44;;;;;;;32.47;23.58;;;9.90;99.90;;;;;;5116695;28;20198;-70
2022/01/01 06:06:12;;;;;;;31.42;22.55;;;9.90;99.90;;;;;;5116623;28;20321;-70
2022/01/01 06:08:39;;;;;;;16.00;13.07;;;9.80;99.90;;;;;;5117043;28;20205;-70
2022/01/01 06:11:06;;;;;;;14.40;9.90;;;9.80;99.90;;;;;;5116350;28;20202;-69
2022/01/01 06:13:33;;;;;;;17.50;12.63;;;9.80;99.90;;;;;;5116529;28;20218;-70
2022/01/01 06:15:59;;;;;;;17.58;11.57;;;9.70;99.90;;;;;;5116276;28;20217;-70
2022/01/01 06:18:26;;;;;;;18.73;12.80;;;9.70;99.90;;;;;;5116192;28;20212;-70
2022/01/01 06:20:53;;;;;;;23.63;15.73;;;9.70;99.90;;;;;;5116429;28;20562;-70
2022/01/01 06:23:21;;;;;;;35.75;22.20;;;9.70;99.90;;;;;;5116405;28;20193;-70
2022/01/01 06:25:48;;;;;;;25.08;17.75;;;9.70;99.90;;;;;;5116185;28;20224;-70
2022/01/01 06:28:15;;;;;;;21.55;15.30;;;9.70;99.90;;;;;;5116659;28;20551;-70
2022/01/01 06:30:42;;;;;;;20.48;15.35;;;9.70;99.90;;;;;;5116083;28;20205;-70
2022/01/01 06:33:12;;;;;;;23.95;17.05;;;9.70;99.90;;;;;;5116325;28;20225;-70
2022/01/01 06:35:40;;;;;;;21.35;15.57;;;9.60;99.90;;;;;;5115898;28;20731;-69
2022/01/01 06:38:08;;;;;;;22.77;16.92;;;9.70;99.90;;;;;;5116151;28;20204;-70
2022/01/01 06:40:37;;;;;;;22.38;15.82;;;9.60;99.90;;;;;;5115998;28;20202;-70
2022/01/01 06:43:04;;;;;;;19.25;16.15;;;9.50;99.90;;;;;;5115891;28;20335;-70
2022/01/01 06:45:31;;;;;;;20.77;15.45;;;9.30;99.90;;;;;;5115861;28;20270;-70
2022/01/01 06:47:58;;;;;;;20.73;16.23;;;9.30;99.90;;;;;;5116060;28;20207;-70
2022/01/01 06:50:25;;;;;;;22.00;16.52;;;9.40;99.90;;;;;;5115806;28;20204;-70
2022/01/01 06:52:52;;;;;;;20.48;15.30;;;9.40;99.90;;;;;;5115796;28;20594;-70
2022/01/01 06:55:19;;;;;;;22.50;15.30;;;9.30;99.90;;;;;;5115311;28;20622;-70
2022/01/01 06:57:47;;;;;;;20.10;13.82;;;9.40;99.90;;;;;;5115469;28;20317;-70
2022/01/01 07:00:15;;;;;;;16.77;13.63;;;9.30;99.90;;;;;;5115233;28;20304;-70
2022/01/01 07:02:45;;;;;;;19.63;14.25;;;9.30;99.90;;;;;;5115408;28;20201;-70
2022/01/01 07:05:13;;;;;;;18.98;14.25;;;9.30;99.90;;;;;;5115984;28;20197;-69
2022/01/01 07:07:40;;;;;;;18.63;13.15;;;9.20;99.90;;;;;;5115416;28;20232;-70
2022/01/01 07:10:09;;;;;;;18.50;13.98;;;9.10;99.90;;;;;;5115457;27;20296;-70
2022/01/01 07:12:36;;;;;;;17.77;13.85;;;9.20;99.90;;;;;;5115091;28;20201;-70
2022/01/01 07:15:06;;;;;;;20.33;13.73;;;9.20;99.90;;;;;;5114927;28;20287;-69
2022/01/01 07:17:35;;;;;;;23.48;17.27;;;9.30;99.90;;;;;;5115411;28;20307;-70
2022/01/01 07:20:02;;;;;;;19.98;15.40;;;9.30;99.90;;;;;;5115222;28;20201;-70
2022/01/01 07:22:29;;;;;;;19.98;14.88;;;9.30;99.90;;;;;;5115968;28;20604;-70
2022/01/01 07:24:56;;;;;;;20.95;16.20;;;9.30;99.90;;;;;;5114957;28;20202;-70
2022/01/01 07:27:23;;;;;;;23.23;17.35;;;9.30;99.90;;;;;;5114913;28;20225;-70
2022/01/01 07:29:50;;;;;;;22.75;18.23;;;9.30;99.90;;;;;;5114626;28;20227;-70
2022/01/01 07:32:18;;;;;;;29.73;21.05;;;9.30;99.90;;;;;;5115024;28;20205;-70
2022/01/01 07:34:45;;;;;;;26.80;19.50;;;9.40;99.90;;;;;;5114728;28;20718;-70
2022/01/01 07:37:12;;;;;;;25.95;18.75;;;9.60;99.90;;;;;;5114980;28;20255;-70
2022/01/01 07:39:39;;;;;;;26.65;19.63;;;9.60;99.90;;;;;;5115121;28;20205;-70
2022/01/01 07:42:06;;;;;;;25.42;18.70;;;9.70;99.90;;;;;;5115536;28;20208;-70
2022/01/01 07:44:33;;;;;;;24.67;17.40;;;9.80;99.90;;;;;;5114987;28;20208;-70
2022/01/01 07:47:01;;;;;;;24.58;18.50;;;9.90;99.90;;;;;;5115795;28;20580;-70
2022/01/01 07:49:29;;;;;;;21.83;16.45;;;9.90;99.90;;;;;;5114930;28;20296;-70
2022/01/01 07:51:56;;;;;;;22.15;17.20;;;10.00;99.90;;;;;;5114826;28;20207;-70
2022/01/01 07:54:22;;;;;;;23.65;18.08;;;10.00;99.90;;;;;;5114426;28;20218;-69
2022/01/01 07:56:49;;;;;;;24.33;17.70;;;9.90;99.90;;;;;;5114720;28;20221;-69
2022/01/01 07:59:16;;;;;;;21.35;16.52;;;9.80;99.90;;;;;;5114442;28;20205;-70
2022/01/01 08:01:43;;;;;;;24.60;17.73;;;9.90;99.90;;;;;;5114189;28;20635;-70
2022/01/01 08:04:10;;;;;;;25.15;19.70;;;9.80;99.90;;;;;;5114595;28;20212;-70
2022/01/01 08:06:38;;;;;;;24.92;18.30;;;9.70;99.90;;;;;;5114449;28;20228;-69
2022/01/01 08:09:05;;;;;;;23.23;18.30;;;9.60;99.90;;;;;;5113816;28;20206;-70
2022/01/01 08:11:32;;;;;;;27.63;20.02;;;9.50;99.90;;;;;;5114133;28;20296;-70
2022/01/01 08:13:59;;;;;;;24.75;19.67;;;9.50;99.90;;;;;;5114300;28;20311;-70
2022/01/01 08:16:26;;;;;;;23.08;17.70;;;9.40;99.90;;;;;;5113913;28;20230;-70
2022/01/01 08:18:52;;;;;;;24.60;18.17;;;9.40;99.90;;;;;;5114200;28;20205;-70
2022/01/01 08:21:19;;;;;;;26.20;17.98;;;9.60;99.90;;;;;;5114215;28;20566;-69
2022/01/01 08:23:47;;;;;;;22.35;16.60;;;9.70;99.90;;;;;;5114306;28;20204;-70
2022/01/01 08:26:14;;;;;;;20.98;15.20;;;9.80;99.90;;;;;;5114044;28;20332;-70
2022/01/01 08:28:42;;;;;;;20.58;14.80;;;9.90;99.90;;;;;;5113939;28;20667;-69
2022/01/01 08:31:08;;;;;;;19.95;15.65;;;10.00;99.90;;;;;;5114344;28;20197;-69
2022/01/01 08:33:35;;;;;;;19.40;14.40;;;10.00;99.90;;;;;;5114101;28;20312;-70
2022/01/01 08:36:03;;;;;;;21.40;16.10;;;10.00;99.90;;;;;;5113684;28;20225;-70
2022/01/01 08:38:31;;;;;;;23.88;17.75;;;10.00;99.90;;;;;;5114316;28;20243;-70
2022/01/01 08:40:59;;;;;;;24.83;18.45;;;9.80;99.90;;;;;;5114120;28;20198;-70
2022/01/01 08:43:26;;;;;;;24.38;19.13;;;9.70;99.90;;;;;;5114117;28;20194;-69
2022/01/01 08:45:54;;;;;;;25.13;17.67;;;9.70;99.90;;;;;;5113805;28;20718;-70
2022/01/01 08:48:21;;;;;;;23.13;17.23;;;9.70;99.90;;;;;;5114073;28;20228;-69
2022/01/01 08:50:47;;;;;;;23.33;17.85;;;9.80;99.90;;;;;;5113768;28;20292;-69
2022/01/01 08:53:15;;;;;;;19.88;15.13;;;9.80;99.90;;;;;;5113759;28;20232;-69
2022/01/01 08:55:41;;;;;;;18.02;14.43;;;9.80;99.90;;;;;;5113843;28;20308;-70
2022/01/01 08:58:09;;;;;;;20.63;15.50;;;9.80;99.90;;;;;;5113858;28;20292;-70
2022/01/01 09:00:36;;;;;;;18.40;15.70;;;9.80;99.90;;;;;;5113811;28;20248;-69
2022/01/01 09:03:03;;;;;;;17.67;15.75;;;9.90;99.90;;;;;;5114001;28;20224;-69
2022/01/01 09:05:30;;;;;;;19.13;14.75;;;9.60;99.90;;;;;;5113635;28;20208;-69
2022/01/01 09:07:57;;;;;;;23.33;16.70;;;9.40;99.90;;;;;;5113784;28;20208;-69
2022/01/01 09:10:24;;;;;;;24.33;18.30;;;9.10;99.90;;;;;;5113754;28;20204;-69
2022/01/01 09:12:50;;;;;;;21.98;16.58;;;8.90;99.90;;;;;;5113842;28;20313;-69
2022/01/01 09:15:19;;;;;;;24.88;17.83;;;8.90;99.90;;;;;;5113287;28;20229;-69
2022/01/01 09:17:45;;;;;;;24.55;18.05;;;8.80;99.90;;;;;;5113570;28;20312;-69
2022/01/01 09:20:12;;;;;;;21.90;16.30;;;8.90;99.90;;;;;;5114667;28;20311;-69
2022/01/01 09:22:39;;;;;;;20.60;15.23;;;9.00;99.90;;;;;;5117392;27;20198;-69
2022/01/01 09:25:06;;;;;;;20.23;14.10;;;9.10;99.90;;;;;;5117164;28;20383;-69
2022/01/01 09:27:33;;;;;;;15.25;12.10;;;9.20;99.90;;;;;;5116901;28;20236;-69
2022/01/01 09:30:00;;;;;;;17.10;12.73;;;9.30;99.90;;;;;;5117273;28;20201;-69
2022/01/01 09:32:28;;;;;;;15.60;12.07;;;9.40;99.90;;;;;;5117097;28;20292;-69
2022/01/01 09:34:56;;;;;;;15.45;12.13;;;9.40;99.90;;;;;;5117013;28;20209;-69
2022/01/01 09:37:24;;;;;;;16.25;12.73;;;9.50;99.90;;;;;;5116936;28;20233;-69
2022/01/01 09:39:51;;;;;;;15.82;11.40;;;9.50;99.90;;;;;;5116764;28;20296;-69
2022/01/01 09:42:21;;;;;;;17.92;12.05;;;9.60;99.90;;;;;;5116854;27;20205;-69
2022/01/01 09:44:48;;;;;;;12.57;9.90;;;9.70;99.90;;;;;;5116901;28;20547;-69
2022/01/01 09:47:15;;;;;;;13.88;10.40;;;9.70;99.90;;;;;;5116853;27;20276;-69
2022/01/01 09:49:43;;;;;;;9.95;8.50;;;9.80;99.90;;;;;;5116817;28;20203;-69
2022/01/01 09:52:12;;;;;;;10.75;9.27;;;9.90;99.90;;;;;;5116662;28;20297;-69
2022/01/01 09:54:39;;;;;;;8.80;7.40;;;9.70;99.90;;;;;;5116520;28;20221;-69
2022/01/01 09:57:06;;;;;;;8.45;7.45;;;9.70;99.90;;;;;;5117302;28;20294;-69
2022/01/01 09:59:33;;;;;;;11.48;8.80;;;9.60;99.90;;;;;;5117845;28;20291;-69
2022/01/01 10:02:00;;;;;;;14.48;9.48;;;9.50;99.90;;;;;;5116290;28;20204;-69
2022/01/01 10:04:26;;;;;;;11.10;8.88;;;9.60;99.90;;;;;;5116208;28;20229;-69
2022/01/01 10:07:05;;;;;;;12.48;8.90;;;9.60;99.90;;;;;;5118053;27;20229;-69
2022/01/01 10:09:32;;;;;;;10.60;8.48;;;9.70;99.90;;;;;;5117463;28;20195;-69
2022/01/01 10:11:59;;;;;;;10.60;9.25;;;9.60;99.90;;;;;;5116620;28;20204;-69
2022/01/01 10:14:35;;;;;;;12.73;7.97;;;9.70;99.90;;;;;;5116270;28;20243;-69
2022/01/01 10:17:08;;;;;;;8.93;7.90;;;9.80;99.90;;;;;;5116528;27;20217;-69
2022/01/01 10:19:35;;;;;;;9.38;6.60;;;10.00;99.90;;;;;;5116739;28;20624;-69
2022/01/01 10:22:06;;;;;;;7.57;5.93;;;10.10;99.90;;;;;;5116796;28;20296;-70
2022/01/01 10:27:42;;;;;;;7.80;6.88;;;10.30;99.90;;;;;;5116047;28;20563;-69
2022/01/01 10:27:45;;;;;;;8.38;6.90;;;10.40;99.90;;;;;;5116199;28;20221;-69
2022/01/01 10:30:20;;;;;;;7.85;6.75;;;10.40;99.90;;;;;;5116074;28;20636;-69
2022/01/01 10:33:08;;;;;;;8.82;7.53;;;10.50;99.90;;;;;;5116135;28;20291;-69
2022/01/01 10:35:37;;;;;;;13.20;7.45;;;10.50;99.90;;;;;;5116071;28;20206;-69
2022/01/01 10:38:12;;;;;;;9.73;7.47;;;10.50;99.90;;;;;;5116089;28;20201;-69
2022/01/01 10:40:39;;;;;;;9.95;7.50;;;10.50;99.90;;;;;;5115967;28;20566;-69
2022/01/01 10:43:06;;;;;;;9.60;7.55;;;10.50;99.90;;;;;;5116054;28;20201;-69
2022/01/01 10:45:36;;;;;;;8.90;7.28;;;10.50;99.90;;;;;;5115809;28;20214;-69
2022/01/01 10:48:20;;;;;;;9.77;7.88;;;10.50;99.90;;;;;;5116159;28;20296;-69
2022/01/01 10:50:49;;;;;;;8.18;7.32;;;10.50;99.90;;;;;;5116070;28;20567;-69
2022/01/01 10:53:21;;;;;;;11.95;8.30;;;10.50;99.90;;;;;;5116115;28;20621;-69
2022/01/01 10:55:52;;;;;;;11.38;8.13;;;10.50;99.90;;;;;;5115561;28;20292;-69
2022/01/01 10:58:21;;;;;;;11.27;9.00;;;10.60;99.90;;;;;;5115872;28;20548;-69
2022/01/01 11:00:48;;;;;;;10.52;8.90;;;10.70;99.90;;;;;;5115496;27;20637;-69
2022/01/01 11:03:17;;;;;;;10.52;8.68;;;10.70;99.90;;;;;;5115507;28;20201;-69
2022/01/01 11:05:45;;;;;;;11.45;9.82;;;10.80;99.90;;;;;;5115147;27;20552;-69
2022/01/01 11:08:13;;;;;;;12.10;10.15;;;10.80;99.90;;;;;;5115646;27;20203;-69
2022/01/01 11:10:43;;;;;;;12.32;10.50;;;10.80;99.90;;;;;;5115223;28;20201;-69
2022/01/01 11:13:12;;;;;;;14.95;12.68;;;10.90;99.90;;;;;;5115810;28;20682;-69
2022/01/01 11:15:39;;;;;;;13.60;11.90;;;10.90;99.90;;;;;;5115049;28;20225;-69
2022/01/01 11:18:07;;;;;;;15.65;12.63;;;11.00;99.90;;;;;;5115564;28;20670;-69
2022/01/01 11:20:35;;;;;;;13.90;11.48;;;11.10;99.90;;;;;;5115229;28;20205;-69
2022/01/01 11:23:05;;;;;;;15.00;11.73;;;11.40;99.90;;;;;;5115528;28;20308;-69
2022/01/01 11:25:33;;;;;;;13.32;10.52;;;11.50;99.90;;;;;;5114719;28;20198;-69
2022/01/01 11:28:01;;;;;;;12.10;10.70;;;11.60;99.90;;;;;;5115026;28;20685;-70
2022/01/01 11:30:29;;;;;;;13.70;11.48;;;11.80;99.90;;;;;;5114933;28;20206;-70
2022/01/01 11:33:03;;;;;;;16.05;12.60;;;11.90;99.90;;;;;;5114964;28;20205;-69
2022/01/01 11:35:32;;;;;;;15.30;11.80;;;12.00;99.90;;;;;;5114874;28;20299;-69
2022/01/01 11:38:03;;;;;;;13.25;11.85;;;12.10;99.90;;;;;;5115474;28;20208;-68
2022/01/01 11:40:40;;;;;;;13.93;12.07;;;12.20;99.90;;;;;;5114664;28;20210;-68
2022/01/01 11:43:08;;;;;;;13.98;12.20;;;12.20;99.90;;;;;;5113858;28;20212;-68
2022/01/01 11:45:44;;;;;;;13.60;12.20;;;12.20;99.90;;;;;;5114439;28;20203;-68
2022/01/01 11:48:30;;;;;;;15.25;12.52;;;12.20;99.90;;;;;;5114566;27;20227;-68
2022/01/01 11:50:58;;;;;;;14.50;12.48;;;12.30;99.90;;;;;;5114403;28;20201;-68
2022/01/01 11:53:28;;;;;;;17.25;12.90;;;12.30;99.90;;;;;;5114212;28;20689;-68
2022/01/01 11:56:06;;;;;;;13.95;11.68;;;12.30;99.90;;;;;;5114040;28;20248;-68
2022/01/01 11:58:50;;;;;;;16.25;12.90;;;12.40;99.90;;;;;;5114503;28;20211;-68
2022/01/01 12:01:18;;;;;;;15.38;12.07;;;12.40;99.90;;;;;;5114417;28;20201;-68
2022/01/01 12:03:50;;;;;;;13.70;11.65;;;12.30;99.90;;;;;;5114049;28;20258;-68
2022/01/01 12:06:17;;;;;;;15.88;12.77;;;12.30;99.90;;;;;;5113973;28;20274;-68
2022/01/01 12:08:46;;;;;;;14.30;12.30;;;12.30;99.90;;;;;;5114254;28;20219;-68
2022/01/01 12:11:29;;;;;;;13.32;11.93;;;12.30;99.90;;;;;;5114230;28;20292;-68
2022/01/01 12:13:58;;;;;;;13.27;11.88;;;12.30;99.90;;;;;;5114167;28;20204;-68
2022/01/01 12:16:26;;;;;;;13.68;12.07;;;12.40;99.90;;;;;;5113777;28;20217;-68
2022/01/01 12:19:01;;;;;;;15.23;12.50;;;12.40;99.90;;;;;;5113843;28;20697;-68
2022/01/01 12:21:28;;;;;;;14.05;12.10;;;12.40;99.90;;;;;;5114130;28;20233;-68
2022/01/01 12:23:59;;;;;;;15.50;12.02;;;12.50;99.90;;;;;;5114086;28;20254;-68
2022/01/01 12:26:32;;;;;;;14.57;11.45;;;12.50;99.90;;;;;;5113893;28;20312;-68
2022/01/01 12:29:04;;;;;;;16.65;12.88;;;12.50;99.90;;;;;;5114221;28;20186;-68
2022/01/01 12:31:30;;;;;;;15.07;12.07;;;12.60;99.90;;;;;;5114142;28;20186;-68
2022/01/01 12:34:00;;;;;;;14.30;11.85;;;12.60;99.90;;;;;;5113639;28;20231;-68
2022/01/01 12:36:28;;;;;;;14.15;11.90;;;12.50;99.90;;;;;;5113791;28;20308;-68